Time;durP1;ratioP1;P1;durP2;ratioP2;P2;SDS_P1;SDS_P2;PMS_P1;PMS_P2;Temp;Humidity;BMP_temperature;BMP_pressure;BME280_temperature;BME280_humidity;BME280_pressure;Samples;Min_cycle;Max_cycle;Signal;HPM_P1;HPM_P2
2022/05/06 00:00:21;;;;;;;4.70;2.70;;;;;;;12.96;59.32;99867.88;5045769;28;20497;-75
2022/05/06 00:02:48;;;;;;;4.77;3.00;;;;;;;13.05;59.33;99853.59;5045973;28;20210;-71
2022/05/06 00:05:16;;;;;;;7.17;3.23;;;;;;;13.06;58.43;99862.91;5046076;28;20219;-71
2022/05/06 00:07:43;;;;;;;5.77;3.03;;;;;;;13.07;58.83;99862.00;5045855;28;20207;-75
2022/05/06 00:10:10;;;;;;;5.00;3.00;;;;;;;13.10;58.32;99857.47;5045634;28;20238;-75
2022/05/06 00:12:39;;;;;;;4.80;2.63;;;;;;;13.10;58.29;99864.38;5045808;28;20295;-72
2022/05/06 00:15:08;;;;;;;5.20;3.00;;;;;;;13.18;58.30;99867.22;5046065;28;20225;-71
2022/05/06 00:17:35;;;;;;;4.60;3.10;;;;;;;13.12;58.49;99862.53;5045568;28;20609;-71
2022/05/06 00:20:03;;;;;;;3.17;2.63;;;;;;;13.14;58.94;99869.16;5045673;28;20222;-71
2022/05/06 00:22:31;;;;;;;4.57;2.90;;;;;;;13.09;58.61;99867.88;5045448;28;20680;-75
2022/05/06 00:24:58;;;;;;;3.83;3.00;;;;;;;13.15;58.29;99864.88;5045454;28;20989;-71
2022/05/06 00:27:25;;;;;;;3.40;2.70;;;;;;;13.07;58.21;99867.97;5045566;28;20798;-75
2022/05/06 00:29:52;;;;;;;7.97;3.17;;;;;;;13.20;58.08;99862.78;5045619;28;20210;-75
2022/05/06 00:32:18;;;;;;;5.30;3.30;;;;;;;13.19;57.83;99870.59;5045547;28;20207;-76
2022/05/06 00:34:45;;;;;;;5.13;3.00;;;;;;;13.27;57.99;99869.16;5045337;28;20712;-71
2022/05/06 00:37:12;;;;;;;4.80;3.37;;;;;;;13.25;57.71;99865.88;5045450;28;20657;-71
2022/05/06 00:39:40;;;;;;;6.57;3.10;;;;;;;13.21;57.74;99863.63;5045775;27;20207;-71
2022/05/06 00:42:08;;;;;;;7.57;3.20;;;;;;;13.21;57.67;99864.44;5045644;28;20204;-75
2022/05/06 00:44:34;;;;;;;7.10;3.47;;;;;;;13.09;57.72;99857.59;5045304;28;20195;-71
2022/05/06 00:47:04;;;;;;;6.50;3.67;;;;;;;13.03;57.52;99845.16;5045393;28;20720;-76
2022/05/06 00:49:31;;;;;;;6.13;3.67;;;;;;;13.12;57.48;99849.69;5045172;28;20203;-71
2022/05/06 00:51:58;;;;;;;8.90;4.07;;;;;;;13.10;57.11;99848.97;5045124;28;20752;-71
2022/05/06 00:54:25;;;;;;;6.33;4.20;;;;;;;13.24;56.79;99842.84;5045218;28;20202;-71
2022/05/06 00:56:54;;;;;;;7.70;4.50;;;;;;;13.27;56.30;99847.81;5045395;28;20246;-75
2022/05/06 00:59:21;;;;;;;8.80;4.93;;;;;;;13.09;56.79;99840.44;5045388;28;20235;-75
2022/05/06 01:01:48;;;;;;;10.87;5.20;;;;;;;13.09;57.86;99839.63;5045151;28;20223;-71
2022/05/06 01:04:16;;;;;;;9.27;5.13;;;;;;;13.12;57.21;99840.22;5045121;28;20621;-76
2022/05/06 01:06:44;;;;;;;9.63;5.10;;;;;;;13.09;57.41;99842.19;5045160;28;20604;-71
2022/05/06 01:09:15;;;;;;;10.33;5.80;;;;;;;13.03;57.59;99845.16;5045175;28;20203;-71
2022/05/06 01:11:42;;;;;;;11.67;5.67;;;;;;;13.04;57.02;99846.81;5045024;28;20227;-75
2022/05/06 01:14:11;;;;;;;8.90;5.40;;;;;;;12.98;57.88;99842.13;5045204;28;20211;-71
2022/05/06 01:16:38;;;;;;;9.73;4.97;;;;;;;13.05;58.32;99844.13;5044718;28;20322;-71
2022/05/06 01:19:06;;;;;;;9.03;4.97;;;;;;;13.13;58.10;99839.28;5044993;28;20712;-71
2022/05/06 01:21:37;;;;;;;8.37;4.43;;;;;;;13.18;58.19;99838.97;5045303;28;20751;-75
2022/05/06 01:24:06;;;;;;;9.50;4.13;;;;;;;13.25;58.54;99842.75;5048310;27;20204;-71
2022/05/06 01:26:53;;;;;;;6.13;4.30;;;;;;;13.22;58.38;99835.25;5048098;28;20223;-71
2022/05/06 01:29:22;;;;;;;5.13;3.70;;;;;;;13.27;58.74;99834.97;5048042;28;20238;-71
2022/05/06 01:31:50;;;;;;;5.60;3.90;;;;;;;13.31;59.16;99829.47;5048135;28;20255;-75
2022/05/06 01:34:19;;;;;;;6.07;3.70;;;;;;;13.32;59.51;99830.28;5048386;27;20203;-76
2022/05/06 01:36:49;;;;;;;5.73;3.93;;;;;;;13.33;59.61;99831.94;5048239;28;20230;-75
2022/05/06 01:39:20;;;;;;;4.53;3.50;;;;;;;13.31;60.38;99826.91;5047951;28;20315;-75
2022/05/06 01:41:52;;;;;;;5.80;3.80;;;;;;;13.26;60.95;99826.41;5048601;28;20456;-74
2022/05/06 01:44:21;;;;;;;6.50;3.63;;;;;;;13.21;61.22;99831.06;5047895;28;20239;-75
2022/05/06 01:46:48;;;;;;;5.93;3.43;;;;;;;13.29;60.94;99830.50;5047674;28;20251;-71
2022/05/06 01:49:16;;;;;;;4.83;3.70;;;;;;;13.26;61.39;99834.13;5047985;28;20206;-75
2022/05/06 01:51:44;;;;;;;5.57;3.70;;;;;;;13.27;61.58;99838.34;5047879;28;20234;-71
2022/05/06 01:54:11;;;;;;;4.40;3.57;;;;;;;13.09;61.98;99835.31;5047733;28;20203;-71
2022/05/06 01:56:39;;;;;;;5.67;3.60;;;;;;;13.16;62.08;99830.56;5047906;28;20608;-71
2022/05/06 01:59:06;;;;;;;5.83;3.67;;;;;;;13.10;62.11;99831.00;5047641;28;20235;-72
2022/05/06 02:01:34;;;;;;;5.50;3.77;;;;;;;13.12;62.21;99839.41;5047818;28;20223;-71
2022/05/06 02:06:45;;;;;;;6.53;3.40;;;;;;;13.05;61.57;99836.44;5047721;28;20604;-71
2022/05/06 02:09:12;;;;;;;6.63;3.70;;;;;;;13.13;61.25;99833.34;5047466;28;20203;-71
2022/05/06 02:11:40;;;;;;;6.30;3.47;;;;;;;13.19;60.87;99840.59;5047552;28;20712;-71
2022/05/06 02:14:07;;;;;;;5.43;3.67;;;;;;;13.06;61.19;99834.69;5047307;28;20211;-71
2022/05/06 02:16:34;;;;;;;4.20;3.40;;;;;;;12.97;61.54;99827.63;5047357;28;20246;-75
2022/05/06 02:19:01;;;;;;;4.37;3.50;;;;;;;12.91;61.92;99822.03;5047444;28;20330;-76
2022/05/06 02:21:28;;;;;;;5.90;3.13;;;;;;;12.93;60.53;99826.22;5047447;28;20224;-75
2022/05/06 02:23:55;;;;;;;4.77;3.50;;;;;;;12.95;60.73;99826.94;5047444;28;20203;-75
2022/05/06 02:26:21;;;;;;;4.67;3.60;;;;;;;12.95;61.26;99827.75;5047331;28;20234;-76
2022/05/06 02:28:50;;;;;;;7.67;3.67;;;;;;;12.91;61.93;99831.44;5047158;28;20963;-71
2022/05/06 02:34:00;;;;;;;4.93;3.90;;;;;;;12.80;63.08;99821.94;5047030;28;20224;-76
2022/05/06 02:36:27;;;;;;;6.03;3.67;;;;;;;12.64;64.13;99823.94;5047141;28;20597;-71
2022/05/06 02:38:54;;;;;;;7.33;4.00;;;;;;;12.63;64.05;99822.31;5046973;28;20316;-75
2022/05/06 02:41:21;;;;;;;4.97;3.87;;;;;;;12.72;64.28;99821.66;5047256;28;20227;-75
2022/05/06 02:43:49;;;;;;;7.23;4.10;;;;;;;12.68;64.51;99825.34;5047098;28;20685;-71
2022/05/06 02:46:16;;;;;;;8.30;4.43;;;;;;;12.52;64.96;99824.78;5046968;28;20226;-71
2022/05/06 02:48:42;;;;;;;9.73;3.80;;;;;;;12.45;65.73;99824.38;5047086;28;20199;-75
2022/05/06 02:51:09;;;;;;;5.93;4.10;;;;;;;12.28;66.89;99819.59;5047053;28;20661;-75
2022/05/06 02:53:36;;;;;;;7.77;4.17;;;;;;;12.21;67.17;99826.84;5046959;28;20606;-71
2022/05/06 02:56:03;;;;;;;5.57;4.07;;;;;;;12.18;67.39;99830.44;5047082;27;20238;-75
2022/05/06 02:58:30;;;;;;;6.10;4.20;;;;;;;12.17;67.95;99827.97;5046881;28;20242;-75
2022/05/06 03:00:58;;;;;;;6.73;3.60;;;;;;;12.21;67.53;99837.09;5046883;28;20230;-75
2022/05/06 03:03:44;;;;;;;7.17;4.30;;;;;;;12.23;67.63;99832.69;5046920;28;20211;-75
2022/05/06 03:06:10;;;;;;;5.10;3.77;;;;;;;12.27;67.44;99835.88;5046853;28;20231;-75
2022/05/06 03:08:37;;;;;;;6.40;4.00;;;;;;;12.21;67.00;99842.22;5046716;28;20565;-75
2022/05/06 03:11:04;;;;;;;5.20;3.60;;;;;;;12.29;66.41;99845.09;5046496;28;20606;-71
2022/05/06 03:13:31;;;;;;;5.50;3.80;;;;;;;12.32;66.41;99854.34;5046573;28;20668;-75
2022/05/06 03:15:59;;;;;;;5.70;3.67;;;;;;;12.39;66.40;99853.84;5046490;28;20230;-71
2022/05/06 03:18:27;;;;;;;6.70;3.90;;;;;;;12.37;66.29;99853.09;5046606;28;20219;-75
2022/05/06 03:20:54;;;;;;;6.10;3.90;;;;;;;12.36;67.00;99856.59;5046541;28;20686;-71
2022/05/06 03:23:21;;;;;;;5.60;4.00;;;;;;;12.40;67.15;99858.03;5046500;28;20199;-71
2022/05/06 03:25:48;;;;;;;8.13;4.53;;;;;;;12.50;67.07;99863.34;5046529;28;20234;-71
2022/05/06 03:28:15;;;;;;;7.10;4.63;;;;;;;12.48;67.46;99866.94;5046458;28;20689;-75
2022/05/06 03:30:44;;;;;;;6.70;4.07;;;;;;;12.39;68.06;99866.66;5046252;28;20484;-71
2022/05/06 03:33:14;;;;;;;7.43;4.40;;;;;;;12.33;68.40;99867.03;5046529;28;20206;-76
2022/05/06 03:35:41;;;;;;;5.63;4.37;;;;;;;12.23;68.60;99873.72;5046102;28;20216;-71
2022/05/06 03:38:08;;;;;;;8.73;4.30;;;;;;;12.18;68.74;99865.50;5046294;28;20626;-71
2022/05/06 03:40:35;;;;;;;5.87;3.87;;;;;;;12.26;69.58;99863.25;5045974;28;20684;-75
2022/05/06 03:43:02;;;;;;;4.80;3.93;;;;;;;12.27;69.39;99857.19;5046182;28;20203;-71
2022/05/06 03:45:29;;;;;;;6.10;3.80;;;;;;;12.25;69.17;99864.19;5045509;28;20236;-71
2022/05/06 03:47:58;;;;;;;6.93;3.97;;;;;;;12.31;69.29;99868.91;5046151;28;20198;-71
2022/05/06 03:53:11;;;;;;;9.80;4.13;;;;;;;12.42;69.38;99886.97;5045866;28;20202;-71
2022/05/06 03:55:38;;;;;;;6.23;3.90;;;;;;;12.50;68.97;99877.91;5045837;28;20223;-76
2022/05/06 03:58:05;;;;;;;6.33;3.93;;;;;;;12.66;69.62;99883.66;5045863;28;20280;-75
2022/05/06 04:00:32;;;;;;;5.93;3.90;;;;;;;12.69;69.96;99880.88;5045962;28;20230;-71
2022/05/06 04:02:59;;;;;;;5.50;3.80;;;;;;;12.76;68.86;99883.84;5045841;28;20206;-71
2022/05/06 04:05:27;;;;;;;7.30;3.93;;;;;;;12.76;68.77;99879.53;5046102;28;20226;-71
2022/05/06 04:07:54;;;;;;;5.67;4.20;;;;;;;12.83;68.71;99883.31;5045732;28;20616;-76
2022/05/06 04:10:21;;;;;;;6.70;4.00;;;;;;;12.96;68.92;99892.75;5046368;28;20223;-71
2022/05/06 04:12:49;;;;;;;5.53;3.80;;;;;;;13.05;67.09;99894.66;5045723;28;20214;-75
2022/05/06 04:15:16;;;;;;;6.77;3.70;;;;;;;13.17;68.60;99898.94;5045662;28;20231;-76
2022/05/06 04:17:42;;;;;;;6.63;3.97;;;;;;;13.28;70.18;99896.47;5046029;28;20218;-75
2022/05/06 04:25:41;;;;;;;5.30;4.10;;;;;;;13.65;68.96;99909.28;5045183;28;20238;-72
2022/05/06 04:28:08;;;;;;;5.43;3.90;;;;;;;13.84;67.63;99910.50;5045322;28;20211;-75
2022/05/06 04:30:35;;;;;;;7.67;3.87;;;;;;;13.97;66.47;99918.97;5045244;28;20284;-71
2022/05/06 04:33:03;;;;;;;5.60;3.73;;;;;;;14.18;66.07;99932.00;5044666;28;20199;-75
2022/05/06 04:35:29;;;;;;;5.53;4.27;;;;;;;14.51;66.94;99928.66;5045241;28;20723;-75
2022/05/06 04:37:58;;;;;;;7.93;4.23;;;;;;;14.71;65.39;99925.44;5045305;28;20195;-75
2022/05/06 04:40:24;;;;;;;6.27;3.80;;;;;;;14.88;65.12;99911.28;5045311;28;20615;-75
2022/05/06 04:42:51;;;;;;;5.40;3.93;;;;;;;15.07;65.01;99915.03;5045557;28;20197;-71
2022/05/06 04:45:18;;;;;;;4.93;3.80;;;;;;;15.24;66.31;99917.09;5045298;28;20252;-75
2022/05/06 04:47:45;;;;;;;5.07;3.80;;;;;;;15.34;64.96;99910.28;5045675;28;20209;-71
2022/05/06 04:50:12;;;;;;;6.70;4.50;;;;;;;15.43;67.10;99924.19;5045192;28;20608;-75
2022/05/06 04:52:39;;;;;;;5.83;4.13;;;;;;;15.59;64.78;99927.22;5044953;28;20206;-75
2022/05/06 04:55:08;;;;;;;5.23;3.90;;;;;;;15.80;64.28;99926.47;5045112;28;20608;-76
2022/05/06 04:57:35;;;;;;;5.97;3.80;;;;;;;15.96;64.38;99926.84;5046511;28;20210;-76
2022/05/06 05:00:03;;;;;;;5.20;3.97;;;;;;;16.05;63.84;99927.84;5048165;28;20276;-76
2022/05/06 05:02:30;;;;;;;6.80;4.03;;;;;;;16.18;63.88;99927.69;5048510;28;20217;-73
2022/05/06 05:04:58;;;;;;;7.27;4.27;;;;;;;16.19;62.10;99935.28;5048779;28;20598;-76
2022/05/06 05:07:25;;;;;;;4.67;3.60;;;;;;;16.42;64.74;99941.13;5048723;28;20677;-76
2022/05/06 05:09:52;;;;;;;6.93;4.30;;;;;;;16.82;64.42;99939.59;5048603;28;20750;-77
2022/05/06 05:12:20;;;;;;;5.23;3.80;;;;;;;17.12;61.29;99938.72;5048939;28;20203;-72
2022/05/06 05:14:47;;;;;;;4.73;3.80;;;;;;;17.36;61.18;99941.78;5048115;28;20697;-77
2022/05/06 05:17:14;;;;;;;7.23;4.87;;;;;;;17.50;61.98;99948.31;5047630;28;20973;-76
2022/05/06 05:19:42;;;;;;;5.57;4.07;;;;;;;17.50;57.96;99952.69;5048435;28;20223;-73
2022/05/06 05:22:10;;;;;;;7.97;4.30;;;;;;;17.55;59.52;99951.34;5048485;28;20478;-73
2022/05/06 05:24:37;;;;;;;5.10;3.87;;;;;;;17.56;57.77;99957.31;5048163;28;20215;-73
2022/05/06 05:27:04;;;;;;;5.43;3.93;;;;;;;17.66;59.05;99958.16;5048663;28;20227;-73
2022/05/06 05:29:33;;;;;;;4.93;3.93;;;;;;;17.68;59.10;99958.00;5048431;28;20702;-76
2022/05/06 05:31:59;;;;;;;5.20;4.00;;;;;;;17.70;60.53;99954.34;5048446;28;20310;-76
2022/05/06 05:34:26;;;;;;;6.37;4.40;;;;;;;17.82;61.57;99953.28;5048230;28;20208;-76
2022/05/06 05:36:53;;;;;;;6.03;4.40;;;;;;;18.16;63.48;99955.44;5048219;28;20220;-76
2022/05/06 05:39:20;;;;;;;6.77;4.40;;;;;;;18.47;59.58;99957.84;5048208;28;20231;-76
2022/05/06 05:41:47;;;;;;;8.40;4.57;;;;;;;18.74;60.21;99954.53;5048328;28;20231;-76
2022/05/06 05:49:44;;;;;;;6.33;4.30;;;;;;;19.15;57.11;99949.84;5047763;28;20330;-76
2022/05/06 05:52:11;;;;;;;7.20;4.73;;;;;;;19.29;59.23;99951.13;5090941;27;20193;-76
2022/05/06 05:54:38;;;;;;;6.00;4.17;;;;;;;18.86;58.01;99952.56;5105459;27;20197;-76
2022/05/06 05:57:06;;;;;;;6.10;4.27;;;;;;;18.85;59.33;99946.59;5152827;27;20201;-76
2022/05/06 05:59:34;;;;;;;6.23;4.50;;;;;;;18.78;59.35;99948.09;5152817;27;20225;-76
2022/05/06 06:02:02;;;;;;;4.93;3.73;;;;;;;18.66;59.29;99954.38;5152817;27;20255;-78
2022/05/06 06:04:29;;;;;;;6.47;4.47;;;;;;;19.05;60.10;99957.66;5152575;27;20235;-76
2022/05/06 06:06:56;;;;;;;6.83;4.30;;;;;;;19.48;57.81;99953.59;5152736;27;20225;-76
2022/05/06 06:09:23;;;;;;;7.33;4.47;;;;;;;19.48;56.86;99956.19;5152387;27;20209;-76
2022/05/06 06:11:50;;;;;;;5.40;4.33;;;;;;;19.47;55.22;99964.94;5152738;27;20217;-73
2022/05/06 06:14:17;;;;;;;6.73;4.27;;;;;;;19.51;58.55;99963.66;5152660;27;20194;-72
2022/05/06 06:16:45;;;;;;;4.83;3.70;;;;;;;19.46;55.27;99965.91;5152565;27;20228;-73
2022/05/06 06:19:13;;;;;;;5.03;3.93;;;;;;;19.52;54.40;99962.72;5152697;27;20287;-73
2022/05/06 06:21:40;;;;;;;7.43;3.90;;;;;;;19.36;56.54;99965.13;5152324;27;20226;-75
2022/05/06 06:24:07;;;;;;;6.63;3.80;;;;;;;19.33;55.13;99968.03;5152328;27;20632;-75
2022/05/06 06:26:34;;;;;;;6.07;3.90;;;;;;;19.34;54.64;99972.22;5152125;27;20304;-73
2022/05/06 06:29:02;;;;;;;6.73;3.90;;;;;;;19.54;55.92;99976.34;5152230;27;20202;-76
2022/05/06 06:31:31;;;;;;;4.67;3.63;;;;;;;19.03;54.14;99975.13;5150726;27;20225;-75
2022/05/06 06:33:58;;;;;;;5.97;3.43;;;;;;;19.06;55.69;99969.66;5150493;27;20271;-76
2022/05/06 06:36:26;;;;;;;7.10;3.90;;;;;;;19.29;53.83;99964.91;5152168;27;20213;-76
2022/05/06 06:38:53;;;;;;;5.47;3.63;;;;;;;19.34;54.97;99957.50;5151991;27;20225;-76
2022/05/06 06:41:20;;;;;;;5.87;3.77;;;;;;;19.58;54.24;99963.91;5152089;27;20220;-73
2022/05/06 06:43:47;;;;;;;5.23;4.00;;;;;;;20.02;52.50;99964.81;5152012;27;20653;-73
2022/05/06 06:46:14;;;;;;;6.30;3.67;;;;;;;19.98;51.93;99973.84;5152355;27;20301;-73
2022/05/06 06:48:41;;;;;;;10.70;3.90;;;;;;;19.58;54.47;99975.09;5151966;27;20211;-73
2022/05/06 06:51:08;;;;;;;5.87;3.63;;;;;;;19.39;53.26;99976.03;5151786;27;20226;-73
2022/05/06 06:53:36;;;;;;;6.57;3.60;;;;;;;19.15;54.08;99984.34;5151643;27;20197;-73
2022/05/06 06:56:04;;;;;;;4.20;3.20;;;;;;;19.58;53.61;99980.28;5151820;27;20223;-76
2022/05/06 06:58:31;;;;;;;6.53;3.93;;;;;;;19.38;53.46;99968.41;5151486;27;20197;-75
2022/05/06 07:00:58;;;;;;;6.57;4.60;;;;;;;19.00;54.11;99978.03;5151425;27;20316;-76
2022/05/06 07:03:25;;;;;;;6.43;3.90;;;;;;;19.11;55.16;99972.66;5151670;27;20251;-76
2022/05/06 07:14:06;;;;;;;4.87;3.70;;;;;;;21.44;49.85;99970.47;5151355;27;20693;-73
2022/05/06 07:16:33;;;;;;;6.00;3.80;;;;;;;21.21;47.53;99990.22;5151493;27;20220;-73
2022/05/06 07:19:00;;;;;;;4.73;3.50;;;;;;;20.80;47.72;99980.44;5151184;27;20600;-73
2022/05/06 07:21:26;;;;;;;5.80;3.90;;;;;;;21.14;48.71;99984.00;5150890;27;20244;-74
2022/05/06 07:23:55;;;;;;;6.50;3.43;;;;;;;20.84;48.82;99983.56;5151233;27;20198;-75
2022/05/06 07:26:22;;;;;;;5.97;3.60;;;;;;;20.81;47.84;99981.25;5151235;27;20217;-74
2022/05/06 07:28:48;;;;;;;5.80;3.93;;;;;;;21.41;46.88;99981.19;5151280;27;20346;-74
2022/05/06 07:31:15;;;;;;;5.43;3.47;;;;;;;21.71;48.15;99981.56;5151034;27;20228;-73
2022/05/06 07:33:42;;;;;;;4.67;3.40;;;;;;;21.79;48.96;99983.38;5150873;27;20249;-76
2022/05/06 07:36:09;;;;;;;4.53;3.10;;;;;;;21.66;45.15;99981.25;5151078;27;20226;-76
2022/05/06 07:38:36;;;;;;;5.33;3.30;;;;;;;21.78;46.09;99981.75;5150935;27;20209;-77
2022/05/06 07:41:04;;;;;;;164.90;13.27;;;;;;;22.14;44.30;99980.47;5150805;27;20245;-77
2022/05/06 07:43:31;;;;;;;10.17;3.30;;;;;;;22.38;42.63;99984.03;5150598;27;20730;-74
2022/05/06 07:45:58;;;;;;;4.33;2.97;;;;;;;23.02;41.69;99976.25;5150664;27;20659;-75
2022/05/06 07:48:25;;;;;;;6.23;3.40;;;;;;;22.75;45.15;99983.47;5150789;27;20202;-74
2022/05/06 07:50:52;;;;;;;12.40;2.90;;;;;;;23.02;40.79;99976.25;5150903;27;20220;-75
2022/05/06 07:53:19;;;;;;;3.30;2.70;;;;;;;23.19;40.71;99983.00;5150565;27;20198;-74
2022/05/06 07:55:46;;;;;;;9.80;3.03;;;;;;;23.27;41.35;99982.97;5150206;27;20227;-75
2022/05/06 07:58:14;;;;;;;5.13;2.73;;;;;;;22.93;37.83;99985.84;5152040;27;20405;-73
2022/05/06 08:00:41;;;;;;;6.07;2.57;;;;;;;22.42;37.87;99984.53;5150248;27;20751;-73
2022/05/06 08:05:56;;;;;;;4.73;2.50;;;;;;;22.68;38.77;99990.31;5150699;27;20223;-73
2022/05/06 08:08:25;;;;;;;4.93;2.93;;;;;;;22.70;40.87;99988.38;5150546;27;20684;-74
2022/05/06 08:10:52;;;;;;;5.87;2.70;;;;;;;22.44;39.31;99993.00;5150663;27;20279;-73
2022/05/06 08:13:21;;;;;;;6.00;2.53;;;;;;;22.51;38.69;99993.94;5150529;27;20764;-73
2022/05/06 08:15:49;;;;;;;4.00;2.83;;;;;;;22.86;43.66;99991.91;5150279;27;20257;-73
2022/05/06 08:18:16;;;;;;;5.63;2.63;;;;;;;23.01;40.14;99991.06;5150276;27;20483;-74
2022/05/06 08:20:43;;;;;;;4.37;2.80;;;;;;;22.86;40.84;99994.50;5150208;27;20234;-73
2022/05/06 08:23:10;;;;;;;12.83;3.30;;;;;;;22.94;41.02;99999.72;5150306;27;20193;-73
2022/05/06 08:25:38;;;;;;;4.50;2.80;;;;;;;22.22;44.80;99995.28;5150090;27;20233;-73
2022/05/06 08:28:07;;;;;;;5.40;3.10;;;;;;;22.20;43.47;99997.25;5150328;27;20294;-74
2022/05/06 08:30:35;;;;;;;5.53;3.10;;;;;;;21.90;43.40;99999.50;5150741;27;20230;-77
2022/05/06 08:33:03;;;;;;;11.07;3.50;;;;;;;22.11;43.55;99998.22;5154577;27;20203;-73
2022/05/06 08:35:30;;;;;;;3.40;3.00;;;;;;;22.58;42.96;100015.78;5154596;27;20219;-73
2022/05/06 08:37:58;;;;;;;5.47;3.00;;;;;;;23.09;41.35;100011.09;5154227;27;20201;-74
2022/05/06 08:40:27;;;;;;;6.10;2.90;;;;;;;22.91;41.60;100010.47;5153990;27;20674;-74
2022/05/06 08:42:54;;;;;;;3.17;2.80;;;;;;;22.67;41.82;100009.56;5114927;27;20212;-74
2022/05/06 08:50:54;;;;;;;5.27;2.90;;;;;;;22.78;39.49;99995.38;5096611;27;20227;-74
2022/05/06 08:53:22;;;;;;;4.37;2.80;;;;;;;22.40;40.01;99995.13;5109384;27;20203;-74
2022/05/06 08:55:50;;;;;;;7.03;2.90;;;;;;;22.22;40.56;100000.50;5094340;27;20633;-74
2022/05/06 08:58:17;;;;;;;6.03;3.10;;;;;;;22.38;42.01;99995.28;5098032;27;20705;-74
2022/05/06 09:00:45;;;;;;;4.67;2.70;;;;;;;22.72;42.85;99999.47;5105988;27;20243;-74
2022/05/06 09:03:15;;;;;;;3.80;2.73;;;;;;;22.79;41.24;99994.38;5098443;27;20215;-74
2022/05/06 09:05:52;;;;;;;3.77;2.90;;;;;;;23.00;43.47;99988.63;5094677;27;20213;-74
2022/05/06 09:08:20;;;;;;;5.83;2.67;;;;;;;22.98;42.25;99990.59;5102437;27;20203;-74
2022/05/06 09:11:03;;;;;;;4.60;2.83;;;;;;;23.06;40.39;99987.94;5091802;27;20220;-74
2022/05/06 09:13:31;;;;;;;4.60;2.60;;;;;;;22.64;41.13;99993.44;5094959;27;20213;-74
2022/05/06 09:19:15;;;;;;;3.20;2.50;;;;;;;22.57;39.79;99988.06;5104934;27;20224;-74
2022/05/06 09:21:59;;;;;;;3.70;2.67;;;;;;;22.76;39.70;99982.50;5104846;27;20230;-74
2022/05/06 09:24:28;;;;;;;5.30;3.20;;;;;;;22.63;39.96;99992.63;5076855;27;20211;-74
2022/05/06 09:26:57;;;;;;;6.20;3.13;;;;;;;22.70;39.63;99987.56;5048259;28;20260;-74
2022/05/06 09:29:28;;;;;;;4.73;2.80;;;;;;;22.56;42.41;99986.44;5048172;28;20703;-73
2022/05/06 09:31:56;;;;;;;5.33;2.83;;;;;;;22.25;40.36;99968.94;5048484;28;20233;-74
2022/05/06 09:34:29;;;;;;;3.57;2.60;;;;;;;22.73;41.20;99977.59;5048516;28;20253;-73
2022/05/06 09:36:55;;;;;;;6.47;3.23;;;;;;;23.12;41.01;99974.22;5048226;28;20305;-76
2022/05/06 09:39:23;;;;;;;6.47;3.47;;;;;;;23.02;40.50;99977.03;5048769;28;20201;-73
2022/05/06 09:42:03;;;;;;;17.60;9.57;;;;;;;23.59;39.36;99975.94;5047854;28;20245;-74
2022/05/06 09:44:30;;;;;;;12.05;7.90;;;;;;;23.45;37.92;99987.94;5047984;27;20297;-75
2022/05/06 09:47:09;;;;;;;11.97;6.80;;;;;;;23.49;39.07;99972.72;5048097;28;20225;-73
2022/05/06 09:49:43;;;;;;;5.23;3.70;;;;;;;23.55;38.42;99961.59;5048133;28;20231;-75
2022/05/06 09:52:11;;;;;;;3.85;2.80;;;;;;;23.63;36.73;99963.34;5048297;28;20590;-75
2022/05/06 09:54:41;;;;;;;7.40;5.30;;;;;;;23.20;39.26;99968.16;5048011;28;20238;-74
2022/05/06 09:57:10;;;;;;;10.33;4.50;;;;;;;22.82;37.98;99971.38;5047897;28;20283;-76
2022/05/06 09:59:37;;;;;;;5.20;3.07;;;;;;;22.67;36.00;99970.47;5047625;28;20644;-75
2022/05/06 10:02:05;;;;;;;5.70;2.80;;;;;;;22.65;39.14;99975.03;5047584;28;20227;-74
2022/05/06 10:04:32;;;;;;;11.23;3.87;;;;;;;22.53;38.38;99965.94;5047902;28;20206;-75
2022/05/06 10:07:01;;;;;;;7.33;3.23;;;;;;;22.51;38.57;99968.69;5047301;28;20227;-74
2022/05/06 10:09:32;;;;;;;4.70;2.90;;;;;;;22.60;36.67;99969.47;5047733;28;20202;-74
2022/05/06 10:12:02;;;;;;;6.77;2.83;;;;;;;22.73;37.25;99961.97;5047777;28;20241;-74
2022/05/06 10:14:29;;;;;;;5.87;3.00;;;;;;;22.65;39.16;99964.59;5047498;28;20198;-74
2022/05/06 10:16:56;;;;;;;5.20;2.83;;;;;;;22.79;37.51;99956.06;5047685;28;20629;-75
2022/05/06 10:19:27;;;;;;;4.80;2.73;;;;;;;23.11;37.45;99953.53;5047916;28;20219;-75
2022/05/06 10:21:55;;;;;;;3.70;2.70;;;;;;;22.85;36.44;99948.56;5047648;28;20320;-74
2022/05/06 10:24:23;;;;;;;6.23;3.10;;;;;;;22.92;38.37;99959.94;5047694;28;20775;-74
2022/05/06 10:26:51;;;;;;;4.93;2.67;;;;;;;23.18;37.93;99960.50;5047571;28;20765;-73
2022/05/06 10:32:58;;;;;;;3.50;2.67;;;;;;;23.55;35.35;99953.75;5047434;28;20213;-74
2022/05/06 10:35:42;;;;;;;4.50;2.40;;;;;;;23.58;35.89;99950.78;5047323;28;20564;-76
2022/05/06 10:38:23;;;;;;;4.03;2.50;;;;;;;23.64;36.15;99944.88;5047341;28;20203;-77
2022/05/06 10:40:56;;;;;;;3.85;2.40;;;;;;;23.88;35.75;99941.31;5047250;28;20327;-76
2022/05/06 10:43:51;;;;;;;6.30;2.70;;;;;;;24.01;37.96;99934.66;5047305;28;20206;-76
2022/05/06 10:46:40;;;;;;;5.60;2.58;;;;;;;23.35;34.70;99934.31;5047754;28;20255;-74
2022/05/06 10:49:47;;;;;;;4.07;2.28;;;;;;;23.65;35.83;99933.47;5047230;28;20204;-74
2022/05/06 10:52:42;;;;;;;2.80;2.13;;;;;;;23.15;36.51;99934.75;5047008;28;20749;-74
2022/05/06 10:55:12;;;;;;;4.82;2.20;;;;;;;23.44;37.57;99931.47;5046004;28;20223;-75
2022/05/06 10:57:56;;;;;;;5.47;2.40;;;;;;;23.51;36.98;99915.94;5044330;27;20203;-74
2022/05/06 11:00:25;;;;;;;5.00;2.67;;;;;;;23.58;34.90;99918.66;5046535;28;20783;-74
2022/05/06 11:02:52;;;;;;;5.30;2.50;;;;;;;23.76;39.38;99918.38;5085572;27;20214;-74
2022/05/06 11:05:21;;;;;;;6.40;2.70;;;;;;;22.67;35.23;99925.34;5151684;27;20683;-74
2022/05/06 11:07:49;;;;;;;6.07;2.47;;;;;;;23.05;37.86;99908.06;5151190;27;20249;-74
2022/05/06 11:10:18;;;;;;;3.50;2.50;;;;;;;23.52;37.12;99909.72;5151427;27;20273;-74
2022/05/06 11:12:48;;;;;;;4.93;2.67;;;;;;;23.37;37.48;99911.47;5151095;27;20217;-74
2022/05/06 11:15:16;;;;;;;3.85;2.45;;;;;;;23.36;36.74;99910.66;5151220;27;20705;-74
2022/05/06 11:17:44;;;;;;;3.63;2.83;;;;;;;23.21;36.47;99902.78;5151008;27;20211;-74
2022/05/06 11:20:21;;;;;;;3.78;2.78;;;;;;;23.40;36.00;99905.91;5150910;27;20602;-74
2022/05/06 11:22:57;;;;;;;5.33;2.40;;;;;;;23.40;35.20;99901.50;5151060;27;20251;-74
2022/05/06 11:25:25;;;;;;;4.80;2.50;;;;;;;23.54;37.76;99893.91;5151185;27;20227;-74
2022/05/06 11:27:55;;;;;;;4.33;2.40;;;;;;;23.73;36.80;99891.63;5150806;27;20347;-74
2022/05/06 11:30:24;;;;;;;5.45;2.22;;;;;;;23.90;36.50;99888.88;5151053;27;20220;-74
2022/05/06 11:32:53;;;;;;;3.05;2.30;;;;;;;23.75;37.39;99888.84;5150859;27;20753;-74
2022/05/06 11:35:36;;;;;;;4.60;2.50;;;;;;;23.46;38.15;99889.56;5151169;27;20223;-74
2022/05/06 11:38:03;;;;;;;5.30;2.77;;;;;;;23.25;38.49;99880.56;5148943;27;20223;-74
2022/05/06 11:40:36;;;;;;;3.93;2.60;;;;;;;23.17;38.04;99878.00;5150608;27;20218;-74
2022/05/06 11:43:19;;;;;;;5.53;2.90;;;;;;;23.14;37.76;99880.97;5150680;27;20215;-74
2022/05/06 11:48:32;;;;;;;4.50;2.30;;;;;;;23.04;37.62;99880.38;5150615;27;20252;-74
2022/05/06 11:51:03;;;;;;;3.37;2.57;;;;;;;23.05;39.52;99876.78;5150678;27;20217;-74
2022/05/06 11:53:31;;;;;;;5.23;2.50;;;;;;;23.12;38.49;99877.69;5150309;27;20206;-74
2022/05/06 11:55:58;;;;;;;4.73;2.70;;;;;;;23.12;38.73;99875.09;5150565;27;20212;-74
2022/05/06 11:58:27;;;;;;;5.20;2.58;;;;;;;23.40;36.60;99875.41;5150741;27;20207;-74
2022/05/06 12:00:55;;;;;;;4.23;2.50;;;;;;;23.40;38.25;99880.63;5150193;27;20246;-74
2022/05/06 12:03:24;;;;;;;4.97;2.40;;;;;;;23.20;35.34;99875.03;5150176;27;20238;-74
2022/05/06 12:06:15;;;;;;;4.45;2.80;;;;;;;23.27;39.02;99873.38;5150392;27;20234;-75
2022/05/06 12:08:41;;;;;;;3.83;2.40;;;;;;;23.28;38.49;99861.94;5129373;27;20207;-76
2022/05/06 12:11:09;;;;;;;4.37;2.53;;;;;;;23.27;37.52;99860.34;5150488;27;20231;-75
2022/05/06 12:13:40;;;;;;;9.37;3.10;;;;;;;23.22;37.27;99867.06;5150075;27;20202;-75
2022/05/06 12:16:12;;;;;;;5.10;2.70;;;;;;;23.42;38.08;99859.59;5150326;27;20635;-75
2022/05/06 12:18:52;;;;;;;6.30;2.60;;;;;;;23.23;37.56;99853.81;5149426;27;20196;-76
2022/05/06 12:21:21;;;;;;;4.93;2.70;;;;;;;23.30;39.24;99853.13;5150184;27;20254;-76
2022/05/06 12:23:57;;;;;;;5.10;2.50;;;;;;;23.30;37.58;99840.06;5149980;27;20198;-76